createdAt,value
2022-10-18T00:00:56.362Z,101253.72
2022-10-18T00:01:58.651Z,101264.84
2022-10-18T00:03:00.913Z,101267.91
2022-10-18T00:04:03.509Z,101263.16
2022-10-18T00:05:06.157Z,101267.06
2022-10-18T00:06:11.959Z,101258.72
2022-10-18T00:07:14.236Z,101266.22
2022-10-18T00:08:17.890Z,101263.44
2022-10-18T00:09:20.129Z,101273.72
2022-10-18T00:10:25.102Z,101271.50
2022-10-18T00:11:27.351Z,101269.53
2022-10-18T00:12:29.550Z,101277.88
2022-10-18T00:13:32.454Z,101280.66
2022-10-18T00:14:34.748Z,101277.06
2022-10-18T00:15:36.964Z,101279.25
2022-10-18T00:16:39.270Z,101269.81
2022-10-18T00:17:41.641Z,101278.97
2022-10-18T00:18:44.450Z,101270.06
2022-10-18T00:19:46.818Z,101272.84
2022-10-18T00:21:03.896Z,101274.78
2022-10-18T00:22:06.109Z,101278.41
2022-10-18T00:23:08.368Z,101277.56
2022-10-18T00:24:10.667Z,101271.19
2022-10-18T00:25:13.572Z,101263.94
2022-10-18T00:26:21.859Z,101275.06
2022-10-18T00:27:24.300Z,101276.16
2022-10-18T00:28:26.666Z,101278.09
2022-10-18T00:29:28.923Z,101280.03
2022-10-18T00:30:31.129Z,101275.59
2022-10-18T00:31:36.676Z,101278.38
2022-10-18T00:32:42.721Z,101275.84
2022-10-18T00:33:46.811Z,101277.50
2022-10-18T00:34:49.086Z,101277.78
2022-10-18T00:35:51.299Z,101270.53
2022-10-18T00:36:53.601Z,101268.03
2022-10-18T00:37:55.806Z,101271.63
2022-10-18T00:38:58.627Z,101271.91
2022-10-18T00:40:00.872Z,101273.00
2022-10-18T00:41:04.387Z,101273.00
2022-10-18T00:42:06.608Z,101274.13
2022-10-18T00:43:15.331Z,101266.03
2022-10-18T00:44:17.477Z,101266.88
2022-10-18T00:45:23.277Z,101278.00
2022-10-18T00:46:27.982Z,101278.00
2022-10-18T00:47:31.252Z,101273.53
2022-10-18T00:48:33.478Z,101274.38
2022-10-18T00:49:43.644Z,101271.03
2022-10-18T00:50:47.776Z,101267.44
2022-10-18T00:52:16.552Z,101271.03
2022-10-18T00:53:21.770Z,101276.59
2022-10-18T00:54:25.074Z,101267.66
2022-10-18T00:55:28.891Z,101274.91
2022-10-18T00:56:33.730Z,101274.06
2022-10-18T00:57:36.760Z,101266.56
2022-10-18T00:58:41.797Z,101267.66
2022-10-18T00:59:45.942Z,101266.00
2022-10-18T01:00:48.278Z,101271.56
2022-10-18T01:01:50.637Z,101274.34
2022-10-18T01:02:52.905Z,101269.03
2022-10-18T01:03:56.132Z,101261.53
2022-10-18T01:04:58.304Z,101267.09
2022-10-18T01:06:00.577Z,101270.97
2022-10-18T01:07:47.267Z,101267.38
2022-10-18T01:09:09.645Z,101270.97
2022-10-18T01:10:20.752Z,101276.53
2022-10-18T01:11:25.947Z,101276.53
2022-10-18T01:12:40.321Z,101279.31
2022-10-18T01:14:00.601Z,101286.81
2022-10-18T01:15:26.962Z,101280.41
2022-10-18T01:16:53.336Z,101283.47
2022-10-18T01:18:10.313Z,101283.72
2022-10-18T01:19:36.085Z,101280.94
2022-10-18T01:20:50.366Z,101279.25
2022-10-18T01:22:34.933Z,101277.31
2022-10-18T01:23:52.500Z,101272.03
2022-10-18T01:26:46.608Z,101273.38
2022-10-18T01:28:12.952Z,101275.34
2022-10-18T01:29:28.089Z,101272.56
2022-10-18T01:30:33.040Z,101274.75
2022-10-18T01:31:42.689Z,101273.06
2022-10-18T01:32:51.185Z,101276.97
2022-10-18T01:34:05.306Z,101276.38
2022-10-18T01:35:14.899Z,101274.44
2022-10-18T01:36:29.124Z,101278.34
2022-10-18T01:37:34.336Z,101276.38
2022-10-18T01:38:38.113Z,101280.25
2022-10-18T01:40:00.906Z,101274.97
2022-10-18T01:41:05.524Z,101274.13
2022-10-18T01:42:10.778Z,101276.91
2022-10-18T01:43:18.664Z,101277.75
2022-10-18T01:44:26.965Z,101280.50
2022-10-18T01:45:29.261Z,101278.84
2022-10-18T01:46:33.365Z,101281.63
2022-10-18T01:47:36.521Z,101282.75
2022-10-18T01:48:39.429Z,101278.84
2022-10-18T01:49:41.627Z,101285.75
2022-10-18T01:50:43.836Z,101281.88
2022-10-18T01:51:46.479Z,101282.97
2022-10-18T01:52:50.967Z,101278.53
2022-10-18T01:53:53.223Z,101280.47
2022-10-18T01:54:56.606Z,101271.31
2022-10-18T01:56:05.893Z,101276.84
2022-10-18T01:57:20.245Z,101276.84
2022-10-18T01:58:31.444Z,101281.56
2022-10-18T01:59:44.157Z,101279.91
2022-10-18T02:00:51.139Z,101281.00
2022-10-18T02:02:26.645Z,101284.59
2022-10-18T02:03:30.088Z,101278.47
2022-10-18T02:04:52.221Z,101284.03
2022-10-18T02:06:15.918Z,101274.03
2022-10-18T02:08:22.068Z,101283.44
2022-10-18T02:09:36.365Z,101279.84
2022-10-18T02:10:46.464Z,101276.22
2022-10-18T02:11:53.058Z,101276.47
2022-10-18T02:12:57.665Z,101274.53
2022-10-18T02:14:08.971Z,101273.09
2022-10-18T02:15:14.919Z,101282.28
2022-10-18T02:16:21.661Z,101287.00
2022-10-18T02:17:29.188Z,101282.56
2022-10-18T02:18:42.349Z,101282.78
2022-10-18T02:19:50.291Z,101283.66
2022-10-18T02:20:53.469Z,101274.47
2022-10-18T02:21:58.440Z,101283.91
2022-10-18T02:23:01.803Z,101285.84
2022-10-18T02:24:06.042Z,101284.75
2022-10-18T02:25:13.820Z,101285.84
2022-10-18T02:26:16.664Z,101279.47
2022-10-18T02:27:18.999Z,101278.88
2022-10-18T02:28:22.078Z,101279.72
2022-10-18T02:29:25.240Z,101281.66
2022-10-18T02:30:43.389Z,101288.06
2022-10-18T02:31:49.468Z,101291.94
2022-10-18T02:33:04.199Z,101293.88
2022-10-18T02:34:27.987Z,101290.25
2022-10-18T02:35:35.901Z,101287.47
2022-10-18T02:36:48.142Z,101289.41
2022-10-18T02:37:52.976Z,101286.63
2022-10-18T02:39:02.796Z,101278.56
2022-10-18T02:40:09.687Z,101281.59
2022-10-18T02:41:12.228Z,101289.09
2022-10-18T02:42:15.863Z,101285.47
2022-10-18T02:43:18.126Z,101282.72
2022-10-18T02:44:20.334Z,101281.03
2022-10-18T02:45:27.526Z,101282.13
2022-10-18T02:46:29.740Z,101279.34
2022-10-18T02:47:32.139Z,101273.78
2022-10-18T02:48:35.411Z,101287.91
2022-10-18T02:49:37.598Z,101287.03
2022-10-18T02:50:42.125Z,101283.16
2022-10-18T02:51:44.385Z,101289.81
2022-10-18T02:52:46.601Z,101284.25
2022-10-18T02:53:48.785Z,101289.25
2022-10-18T02:54:51.018Z,101283.72
2022-10-18T02:55:53.206Z,101278.16
2022-10-18T02:56:55.613Z,101286.47
2022-10-18T02:57:57.772Z,101290.94
2022-10-18T02:59:00.120Z,101280.94
2022-10-18T03:00:10.353Z,101292.28
2022-10-18T03:01:12.815Z,101285.06
2022-10-18T03:02:15.034Z,101291.44
2022-10-18T03:03:17.205Z,101295.31
2022-10-18T03:04:19.656Z,101298.09
2022-10-18T03:05:21.843Z,101300.84
2022-10-18T03:06:24.305Z,101294.47
2022-10-18T03:07:27.198Z,101287.84
2022-10-18T03:08:30.048Z,101290.03
2022-10-18T03:09:32.346Z,101294.75
2022-10-18T03:10:34.599Z,101296.94
2022-10-18T03:11:36.848Z,101299.69
2022-10-18T03:12:39.015Z,101298.00
2022-10-18T03:13:41.244Z,101299.97
2022-10-18T03:14:43.532Z,101304.69
2022-10-18T03:15:46.977Z,101300.22
2022-10-18T03:16:49.394Z,101290.22
2022-10-18T03:17:52.406Z,101309.66
2022-10-18T03:18:54.591Z,101296.84
2022-10-18T03:19:56.820Z,101296.03
2022-10-18T03:20:59.099Z,101296.84
2022-10-18T03:22:01.392Z,101301.59
2022-10-18T03:23:03.741Z,101296.28
2022-10-18T03:24:06.625Z,101293.53
2022-10-18T03:25:09.189Z,101291.00
2022-10-18T03:26:11.515Z,101296.56
2022-10-18T03:27:13.845Z,101290.16
2022-10-18T03:28:16.073Z,101300.44
2022-10-18T03:29:18.301Z,101294.00
2022-10-18T03:30:20.492Z,101294.88
2022-10-18T03:31:22.770Z,101295.69
2022-10-18T03:32:25.109Z,101299.84
2022-10-18T03:33:27.317Z,101304.28
2022-10-18T03:34:29.500Z,101300.91
2022-10-18T03:35:31.848Z,101297.31
2022-10-18T03:36:34.557Z,101292.84
2022-10-18T03:37:37.262Z,101296.22
2022-10-18T03:38:39.529Z,101299.25
2022-10-18T03:39:41.786Z,101289.25
2022-10-18T03:40:43.976Z,101294.81
2022-10-18T03:41:46.188Z,101295.06
2022-10-18T03:42:48.387Z,101295.91
2022-10-18T03:43:50.655Z,101298.66
2022-10-18T03:44:52.881Z,101301.72
2022-10-18T03:45:55.968Z,101293.38
2022-10-18T03:46:58.127Z,101289.75
2022-10-18T03:48:00.399Z,101296.16
2022-10-18T03:49:02.955Z,101294.22
2022-10-18T03:50:05.586Z,101298.06
2022-10-18T03:51:07.860Z,101298.94
2022-10-18T03:52:10.236Z,101295.31
2022-10-18T03:53:12.423Z,101288.91
2022-10-18T03:54:14.691Z,101294.47
2022-10-18T03:55:16.907Z,101295.31
2022-10-18T03:56:19.187Z,101289.75
2022-10-18T03:57:21.409Z,101290.00
2022-10-18T03:58:24.011Z,101295.56
2022-10-18T03:59:26.345Z,101298.59
2022-10-18T04:00:28.589Z,101293.31
2022-10-18T04:01:31.333Z,101294.13
2022-10-18T04:02:33.962Z,101289.69
2022-10-18T04:03:36.358Z,101292.44
2022-10-18T04:04:38.546Z,101288.03
2022-10-18T04:05:40.769Z,101291.88
2022-10-18T04:06:43.947Z,101288.25
2022-10-18T04:07:46.194Z,101284.66
2022-10-18T04:08:48.472Z,101291.03
2022-10-18T04:09:50.668Z,101288.53
2022-10-18T04:10:55.633Z,101290.19
2022-10-18T04:11:58.749Z,101282.97
2022-10-18T04:13:00.977Z,101281.06
2022-10-18T04:14:03.176Z,101284.66
2022-10-18T04:15:05.994Z,101281.06
2022-10-18T04:16:08.214Z,101283.81
2022-10-18T04:17:10.432Z,101289.38
2022-10-18T04:18:12.633Z,101289.38
2022-10-18T04:19:14.847Z,101290.19
2022-10-18T04:20:17.333Z,101295.50
2022-10-18T04:21:19.734Z,101284.66
2022-10-18T04:22:21.966Z,101285.47
2022-10-18T04:23:24.255Z,101295.50
2022-10-18T04:24:26.493Z,101299.13
2022-10-18T04:25:29.505Z,101292.44
2022-10-18T04:26:32.101Z,101290.53
2022-10-18T04:27:34.583Z,101289.44
2022-10-18T04:28:40.210Z,101292.22
2022-10-18T04:29:42.615Z,101284.72
2022-10-18T04:30:52.185Z,101290.88
2022-10-18T04:31:54.637Z,101295.31
2022-10-18T04:32:56.826Z,101293.38
2022-10-18T04:33:59.046Z,101288.91
2022-10-18T04:35:02.321Z,101291.44
2022-10-18T04:36:04.806Z,101295.06
2022-10-18T04:37:07.173Z,101284.78
2022-10-18T04:38:09.472Z,101288.41
2022-10-18T04:39:11.635Z,101295.63
2022-10-18T04:40:13.874Z,101292.59
2022-10-18T04:41:16.110Z,101293.72
2022-10-18T04:42:18.304Z,101289.81
2022-10-18T04:43:20.527Z,101295.38
2022-10-18T04:44:22.900Z,101297.06
2022-10-18T04:45:25.150Z,101294.28
2022-10-18T04:46:27.566Z,101293.19
2022-10-18T04:47:29.938Z,101300.44
2022-10-18T04:48:32.409Z,101299.56
2022-10-18T04:49:34.642Z,101294.88
2022-10-18T04:50:36.874Z,101301.25
2022-10-18T04:51:49.409Z,101298.47
2022-10-18T04:52:53.611Z,101293.78
2022-10-18T04:53:57.524Z,101297.38
2022-10-18T04:54:59.783Z,101305.72
2022-10-18T04:56:02.068Z,101301.00
2022-10-18T04:57:04.469Z,101299.06
2022-10-18T04:58:06.791Z,101298.22
2022-10-18T04:59:08.976Z,101299.06
2022-10-18T05:00:12.163Z,101297.13
2022-10-18T05:01:15.399Z,101299.91
2022-10-18T05:02:17.702Z,101287.97
2022-10-18T05:03:20.034Z,101296.03
2022-10-18T05:04:22.251Z,101284.94
2022-10-18T05:05:27.048Z,101291.56
2022-10-18T05:06:35.533Z,101294.94
2022-10-18T05:07:37.911Z,101288.53
2022-10-18T05:08:40.106Z,101290.47
2022-10-18T05:09:42.312Z,101282.16
2022-10-18T05:10:44.527Z,101286.63
2022-10-18T05:11:47.391Z,101285.53
2022-10-18T05:12:49.763Z,101281.88
2022-10-18T05:13:52.364Z,101283.84
2022-10-18T05:14:56.769Z,101276.34
2022-10-18T05:16:00.356Z,101278.28
2022-10-18T05:17:02.590Z,101275.50
2022-10-18T05:18:04.851Z,101283.56
2022-10-18T05:19:07.137Z,101277.19
2022-10-18T05:20:09.939Z,101282.75
2022-10-18T05:21:12.635Z,101278.03
2022-10-18T05:22:14.863Z,101284.41
2022-10-18T05:23:17.096Z,101286.91
2022-10-18T05:24:21.034Z,101289.69
2022-10-18T05:25:25.290Z,101282.22
2022-10-18T05:26:27.873Z,101282.22
2022-10-18T05:27:30.085Z,101282.22
2022-10-18T05:28:41.305Z,101285.81
2022-10-18T05:29:43.856Z,101292.22
2022-10-18T05:30:46.072Z,101288.94
2022-10-18T05:31:49.429Z,101288.09
2022-10-18T05:32:52.787Z,101285.31
2022-10-18T05:33:55.050Z,101283.38
2022-10-18T05:34:57.343Z,101288.94
2022-10-18T05:35:59.675Z,101285.06
2022-10-18T05:37:01.901Z,101288.66
2022-10-18T05:38:06.020Z,101292.28
2022-10-18T05:39:08.255Z,101285.06
2022-10-18T05:40:11.132Z,101277.56
2022-10-18T05:41:13.456Z,101277.56
2022-10-18T05:42:15.722Z,101265.34
2022-10-18T05:43:18.018Z,101272.88
2022-10-18T05:44:20.361Z,101273.69
2022-10-18T05:45:23.504Z,101274.53
2022-10-18T05:46:25.808Z,101269.81
2022-10-18T05:47:28.465Z,101269.81
2022-10-18T05:48:31.028Z,101261.75
2022-10-18T05:49:33.246Z,101268.13
2022-10-18T05:50:38.139Z,101255.34
2022-10-18T05:51:42.648Z,101249.53
2022-10-18T05:52:44.846Z,101242.06
2022-10-18T05:53:47.119Z,101245.41
2022-10-18T05:54:49.314Z,101245.66
2022-10-18T05:55:51.565Z,101243.97
2022-10-18T05:56:54.025Z,101236.50
2022-10-18T05:57:56.279Z,101231.22
2022-10-18T05:58:58.482Z,101238.44
2022-10-18T06:00:00.653Z,101226.50
2022-10-18T06:01:05.122Z,101232.88
2022-10-18T06:02:08.705Z,101233.72
2022-10-18T06:03:10.943Z,101236.50
2022-10-18T06:04:13.166Z,101239.53
2022-10-18T06:05:15.461Z,101250.38
2022-10-18T06:06:17.720Z,101248.44
2022-10-18T06:07:20.018Z,101248.44
2022-10-18T06:08:22.258Z,101254.84
2022-10-18T06:09:24.667Z,101249.28
2022-10-18T06:10:26.972Z,101253.72
2022-10-18T06:11:30.068Z,101250.13
2022-10-18T06:12:32.336Z,101251.81
2022-10-18T06:13:34.590Z,101249.84
2022-10-18T06:14:37.421Z,101252.06
2022-10-18T06:15:39.655Z,101253.50
2022-10-18T06:16:41.833Z,101248.78
2022-10-18T06:17:44.049Z,101250.72
2022-10-18T06:18:51.183Z,101248.53
2022-10-18T06:19:53.458Z,101247.69
2022-10-18T06:20:58.041Z,101238.28
2022-10-18T06:22:00.315Z,101236.59
2022-10-18T06:23:02.543Z,101231.88
2022-10-18T06:24:05.125Z,101237.41
2022-10-18T06:25:07.602Z,101232.72
2022-10-18T06:26:11.881Z,101225.22
2022-10-18T06:27:14.155Z,101226.91
2022-10-18T06:28:16.364Z,101236.06
2022-10-18T06:29:18.562Z,101229.41
2022-10-18T06:30:20.772Z,101225.81
2022-10-18T06:31:25.801Z,101237.47
2022-10-18T06:32:28.072Z,101243.31
2022-10-18T06:33:35.085Z,101251.38
2022-10-18T06:34:37.335Z,101255.81
2022-10-18T06:35:39.524Z,101249.19
2022-10-18T06:36:41.703Z,101255.81
2022-10-18T06:37:43.864Z,101249.19
2022-10-18T06:38:46.095Z,101263.88
2022-10-18T06:39:48.336Z,101258.06
2022-10-18T06:40:50.559Z,101256.16
2022-10-18T06:41:55.456Z,101264.47
2022-10-18T06:43:00.411Z,101261.44
2022-10-18T06:44:13.333Z,101255.88
2022-10-18T06:45:18.462Z,101269.50
2022-10-18T06:46:20.727Z,101267.56
2022-10-18T06:47:23.038Z,101275.66
2022-10-18T06:48:25.462Z,101272.28
2022-10-18T06:49:30.234Z,101275.06
2022-10-18T06:50:32.477Z,101273.97
2022-10-18T06:51:34.830Z,101270.09
2022-10-18T06:52:37.135Z,101250.66
2022-10-18T06:53:44.613Z,101262.31
2022-10-18T06:54:55.637Z,101260.41
2022-10-18T06:56:16.356Z,101261.22
2022-10-18T06:57:20.848Z,101264.84
2022-10-18T06:58:25.263Z,101262.91
2022-10-18T06:59:30.404Z,101262.66
2022-10-18T07:00:33.724Z,101258.78
2022-10-18T07:01:36.052Z,101256.00
2022-10-18T07:02:41.309Z,101262.09
2022-10-18T07:03:44.773Z,101259.34
2022-10-18T07:04:46.991Z,101251.84
2022-10-18T07:05:50.567Z,101257.16
2022-10-18T07:06:56.941Z,101256.06
2022-10-18T07:07:59.151Z,101258.56
2022-10-18T07:09:03.162Z,101252.19
2022-10-18T07:10:06.039Z,101256.34
2022-10-18T07:11:10.186Z,101244.41
2022-10-18T07:12:12.391Z,101248.88
2022-10-18T07:13:31.320Z,101243.03
2022-10-18T07:14:34.893Z,101243.03
2022-10-18T07:15:38.785Z,101244.47
2022-10-18T07:16:41.021Z,101250.84
2022-10-18T07:17:47.967Z,101254.47
2022-10-18T07:18:51.421Z,101258.94
2022-10-18T07:19:53.703Z,101261.72
2022-10-18T07:20:56.020Z,101264.50
2022-10-18T07:21:58.258Z,101264.22
2022-10-18T07:23:00.545Z,101263.13
2022-10-18T07:24:02.746Z,101260.09
2022-10-18T07:25:06.278Z,101257.31
2022-10-18T07:26:17.009Z,101262.00
2022-10-18T07:27:19.360Z,101257.03
2022-10-18T07:28:21.658Z,101265.97
2022-10-18T07:29:23.828Z,101259.53
2022-10-18T07:30:26.195Z,101257.63
2022-10-18T07:31:29.796Z,101258.19
2022-10-18T07:32:32.143Z,101251.81
2022-10-18T07:33:35.669Z,101255.13
2022-10-18T07:34:37.851Z,101250.44
2022-10-18T07:35:40.103Z,101254.91
2022-10-18T07:36:42.355Z,101249.06
2022-10-18T07:37:44.682Z,101252.41
2022-10-18T07:38:46.904Z,101253.25
2022-10-18T07:39:49.185Z,101257.69
2022-10-18T07:40:57.533Z,101259.38
2022-10-18T07:41:59.718Z,101255.50
2022-10-18T07:43:04.605Z,101249.66
2022-10-18T07:44:07.312Z,101260.53
2022-10-18T07:45:10.600Z,101249.16
2022-10-18T07:46:13.803Z,101250.00
2022-10-18T07:47:16.340Z,101241.38
2022-10-18T07:48:18.524Z,101245.84
2022-10-18T07:49:20.772Z,101252.00
2022-10-18T07:50:23.408Z,101257.56
2022-10-18T07:51:26.842Z,101261.75
2022-10-18T07:52:29.066Z,101259.78
2022-10-18T07:53:31.583Z,101252.28
2022-10-18T07:54:33.791Z,101250.06
2022-10-18T07:55:36.005Z,101253.69
2022-10-18T07:56:38.361Z,101245.94
2022-10-18T07:57:40.651Z,101243.16
2022-10-18T07:58:44.444Z,101241.78
2022-10-18T07:59:48.414Z,101239.84
2022-10-18T08:00:50.603Z,101240.41
2022-10-18T08:01:52.890Z,101236.53
2022-10-18T08:02:58.880Z,101235.41
2022-10-18T08:04:07.209Z,101236.28
2022-10-18T08:05:10.746Z,101237.69
2022-10-18T08:06:16.739Z,101251.31
2022-10-18T08:07:18.980Z,101241.88
2022-10-18T08:08:23.086Z,101247.97
2022-10-18T08:09:25.391Z,101253.53
2022-10-18T08:10:27.670Z,101249.66
2022-10-18T08:11:29.923Z,101250.25
2022-10-18T08:12:35.090Z,101247.47
2022-10-18T08:13:37.462Z,101237.44
2022-10-18T08:14:39.682Z,101243.59
2022-10-18T08:15:42.045Z,101236.06
2022-10-18T08:16:44.301Z,101232.19
2022-10-18T08:17:46.520Z,101231.09
2022-10-18T08:18:49.266Z,101229.13
2022-10-18T08:20:04.731Z,101212.44
2022-10-18T08:21:15.460Z,101216.91
2022-10-18T08:22:17.656Z,101219.44
2022-10-18T08:23:20.026Z,101216.41
2022-10-18T08:24:22.491Z,101216.66
2022-10-18T08:25:24.771Z,101213.00
2022-10-18T08:26:27.102Z,101213.00
2022-10-18T08:27:29.562Z,101210.22
2022-10-18T08:28:32.029Z,101199.97
2022-10-18T08:29:34.353Z,101199.97
2022-10-18T08:30:36.604Z,101210.84
2022-10-18T08:31:38.796Z,101198.00
2022-10-18T08:32:40.991Z,101203.31
2022-10-18T08:33:43.688Z,101195.84
2022-10-18T08:34:45.939Z,101203.09
2022-10-18T08:36:01.745Z,101197.25
2022-10-18T08:37:04.582Z,101184.44
2022-10-18T08:38:16.381Z,101189.72
2022-10-18T08:39:20.571Z,101190.56
2022-10-18T08:40:23.079Z,101187.78
2022-10-18T08:41:33.178Z,101193.38
2022-10-18T08:43:17.036Z,101195.00
2022-10-18T08:44:28.731Z,101181.09
2022-10-18T08:45:42.543Z,101183.06
2022-10-18T08:46:48.314Z,101178.09
2022-10-18T08:47:52.179Z,101186.16
2022-10-18T08:48:56.883Z,101174.75
2022-10-18T08:50:16.301Z,101180.31
2022-10-18T08:51:42.547Z,101182.00
2022-10-18T08:53:03.260Z,101178.94
2022-10-18T08:54:14.618Z,101179.75
2022-10-18T08:55:39.931Z,101181.44
2022-10-18T08:56:59.202Z,101190.38
2022-10-18T08:58:01.503Z,101180.91
2022-10-18T08:59:04.561Z,101174.50
2022-10-18T09:00:22.177Z,101166.16
2022-10-18T09:01:42.413Z,101174.22
2022-10-18T09:03:06.404Z,101169.25
2022-10-18T09:04:53.385Z,101172.56
2022-10-18T09:06:00.391Z,101171.47
2022-10-18T09:07:28.235Z,101172.31
2022-10-18T09:08:55.241Z,101177.63
2022-10-18T09:10:22.710Z,101160.91
2022-10-18T09:11:51.082Z,101158.69
2022-10-18T09:13:14.942Z,101160.38
2022-10-18T09:14:32.261Z,101158.44
2022-10-18T09:15:54.752Z,101151.75
2022-10-18T09:17:02.852Z,101156.78
2022-10-18T09:18:11.148Z,101156.50
2022-10-18T09:19:45.233Z,101153.72
2022-10-18T09:20:57.735Z,101150.66
2022-10-18T09:22:13.489Z,101154.31
2022-10-18T09:23:20.991Z,101155.13
2022-10-18T09:24:28.199Z,101154.84
2022-10-18T09:25:39.649Z,101153.47
2022-10-18T09:26:48.080Z,101145.97
2022-10-18T09:28:04.794Z,101143.19
2022-10-18T09:29:45.268Z,101139.00
2022-10-18T09:31:04.172Z,101136.22
2022-10-18T09:32:08.999Z,101132.91
2022-10-18T09:33:17.170Z,101132.63
2022-10-18T09:34:26.356Z,101132.06
2022-10-18T09:35:59.347Z,101133.75
2022-10-18T09:37:02.439Z,101128.75
2022-10-18T09:38:09.752Z,101125.13
2022-10-18T09:39:21.589Z,101124.88
2022-10-18T09:40:28.225Z,101121.81
2022-10-18T09:41:48.817Z,101123.22
2022-10-18T09:42:56.807Z,101124.88
2022-10-18T09:44:09.690Z,101118.47
2022-10-18T09:45:35.311Z,101125.44
2022-10-18T09:46:43.559Z,101118.47
2022-10-18T09:47:54.107Z,101121.84
2022-10-18T09:49:02.532Z,101123.22
2022-10-18T09:50:29.713Z,101121.28
2022-10-18T09:51:38.850Z,101120.16
2022-10-18T09:52:58.852Z,101119.88
2022-10-18T09:54:13.468Z,101120.47
2022-10-18T09:55:22.403Z,101115.72
2022-10-18T09:56:30.233Z,101122.97
2022-10-18T09:57:41.230Z,101114.31
2022-10-18T09:58:46.563Z,101106.56
2022-10-18T09:59:51.810Z,101113.50
2022-10-18T10:00:55.595Z,101117.13
2022-10-18T10:01:57.854Z,101112.13
2022-10-18T10:03:02.243Z,101112.66
2022-10-18T10:04:04.622Z,101110.47
2022-10-18T10:05:12.708Z,101104.59
2022-10-18T10:06:18.195Z,101103.22
2022-10-18T10:07:34.972Z,101110.50
2022-10-18T10:08:42.099Z,101109.94
2022-10-18T10:09:46.307Z,101117.72
2022-10-18T10:10:48.675Z,101114.41
2022-10-18T10:11:52.406Z,101116.63
2022-10-18T10:13:17.889Z,101124.44
2022-10-18T10:14:30.704Z,101132.22
2022-10-18T10:15:37.149Z,101144.47
2022-10-18T10:16:52.020Z,101156.75
2022-10-18T10:18:01.264Z,101160.94
2022-10-18T10:19:03.494Z,101170.69
2022-10-18T10:20:19.017Z,101177.38
2022-10-18T10:21:24.313Z,101168.75
2022-10-18T10:22:32.263Z,101158.97
2022-10-18T10:23:34.622Z,101160.34
2022-10-18T10:24:51.580Z,101161.50
2022-10-18T10:25:59.967Z,101159.53
2022-10-18T10:27:06.912Z,101160.94
2022-10-18T10:28:22.876Z,101164.53
2022-10-18T10:29:46.245Z,101169.88
2022-10-18T10:30:48.996Z,101172.06
2022-10-18T10:32:03.214Z,101186.84
2022-10-18T10:33:07.071Z,101189.09
2022-10-18T10:34:15.153Z,101193.56
2022-10-18T10:35:53.377Z,101190.78
2022-10-18T10:36:56.108Z,101170.41
2022-10-18T10:37:58.443Z,101159.25
2022-10-18T10:39:19.009Z,101168.72
2022-10-18T10:40:26.518Z,101203.03
2022-10-18T10:42:38.743Z,101237.88
2022-10-18T10:43:45.163Z,101237.00
2022-10-18T10:44:55.455Z,101238.16
2022-10-18T10:46:05.948Z,101235.63
2022-10-18T10:47:08.679Z,101238.41
2022-10-18T10:48:20.015Z,101233.97
2022-10-18T10:49:42.516Z,101233.13
2022-10-18T10:50:58.943Z,101227.81
2022-10-18T10:52:08.855Z,101216.69
2022-10-18T10:53:30.819Z,101211.38
2022-10-18T10:54:36.997Z,101216.09
2022-10-18T10:55:39.227Z,101205.81
2022-10-18T10:56:56.724Z,101206.91
2022-10-18T10:57:59.290Z,101202.44
2022-10-18T10:59:10.145Z,101202.44
2022-10-18T11:00:37.609Z,101199.13
2022-10-18T11:01:40.058Z,101203.84
2022-10-18T11:02:51.128Z,101201.34
2022-10-18T11:04:24.106Z,101208.59
2022-10-18T11:05:29.515Z,101198.56
2022-10-18T11:06:44.993Z,101202.44
2022-10-18T11:07:48.120Z,101203.31
2022-10-18T11:08:52.944Z,101201.63
2022-10-18T11:10:02.471Z,101207.19
2022-10-18T11:11:27.893Z,101206.38
2022-10-18T11:12:46.440Z,101209.16
2022-10-18T11:14:07.364Z,101206.38
2022-10-18T11:15:26.132Z,101211.09
2022-10-18T11:16:51.572Z,101205.50
2022-10-18T11:18:17.088Z,101206.63
2022-10-18T11:19:39.217Z,101208.59
2022-10-18T11:20:59.734Z,101210.25
2022-10-18T11:22:06.641Z,101211.38
2022-10-18T11:23:16.880Z,101219.72
2022-10-18T11:24:20.118Z,101228.09
2022-10-18T11:25:27.937Z,101228.91
2022-10-18T11:26:54.932Z,101224.47
2022-10-18T11:28:32.945Z,101219.72
2022-10-18T11:30:07.482Z,101225.88
2022-10-18T11:31:32.684Z,101230.59
2022-10-18T11:32:49.773Z,101230.31
2022-10-18T11:34:19.746Z,101227.53
2022-10-18T11:35:32.137Z,101229.19
2022-10-18T11:36:54.686Z,101227.53
2022-10-18T11:38:13.194Z,101231.72
2022-10-18T11:39:19.924Z,101225.31
2022-10-18T11:40:31.226Z,101228.09
2022-10-18T11:41:51.856Z,101220.56
2022-10-18T11:43:07.703Z,101227.81
2022-10-18T11:44:28.500Z,101223.06
2022-10-18T11:46:08.275Z,101219.16
2022-10-18T11:47:35.802Z,101218.06
2022-10-18T11:48:58.421Z,101228.94
2022-10-18T11:50:30.937Z,101240.94
2022-10-18T11:52:06.838Z,101241.75
2022-10-18T11:53:38.487Z,101240.94
2022-10-18T11:54:55.519Z,101241.75
2022-10-18T11:56:30.652Z,101245.38
2022-10-18T11:57:39.078Z,101244.25
2022-10-18T11:59:11.302Z,101241.47
2022-10-18T12:00:44.882Z,101244.25
2022-10-18T12:02:03.918Z,101240.38
2022-10-18T12:03:27.264Z,101255.13
2022-10-18T12:04:53.097Z,101257.09
2022-10-18T12:06:15.565Z,101255.97
2022-10-18T12:07:26.795Z,101254.88
2022-10-18T12:08:39.997Z,101257.66
2022-10-18T12:09:45.581Z,101263.25
2022-10-18T12:11:04.547Z,101259.59
2022-10-18T12:12:14.650Z,101252.09
2022-10-18T12:13:23.129Z,101255.69
2022-10-18T12:14:32.913Z,101256.53
2022-10-18T12:15:39.557Z,101252.91
2022-10-18T12:16:51.536Z,101253.47
2022-10-18T12:17:59.983Z,101247.91
2022-10-18T12:19:07.168Z,101256.28
2022-10-18T12:20:24.401Z,101252.63
2022-10-18T12:21:30.883Z,101259.88
2022-10-18T12:22:43.607Z,101243.97
2022-10-18T12:23:53.055Z,101255.13
2022-10-18T12:24:55.407Z,101252.34
2022-10-18T12:26:03.835Z,101249.56
2022-10-18T12:27:06.420Z,101247.63
2022-10-18T12:28:32.895Z,101256.81
2022-10-18T12:29:50.278Z,101262.97
2022-10-18T12:31:24.847Z,101261.28
2022-10-18T12:32:34.716Z,101275.22
2022-10-18T12:33:46.028Z,101267.69
2022-10-18T12:35:06.041Z,101271.31
2022-10-18T12:36:11.027Z,101276.03
2022-10-18T12:37:31.166Z,101264.91
2022-10-18T12:38:36.953Z,101260.19
2022-10-18T12:40:05.362Z,101263.78
2022-10-18T12:41:20.995Z,101257.38
2022-10-18T12:42:27.255Z,101257.09
2022-10-18T12:43:36.600Z,101251.53
2022-10-18T12:44:39.029Z,101262.69
2022-10-18T12:46:00.341Z,101256.00
2022-10-18T12:47:05.739Z,101254.31
2022-10-18T12:48:25.652Z,101261.84
2022-10-18T12:49:34.382Z,101263.50
2022-10-18T12:50:42.198Z,101261.00
2022-10-18T12:51:58.185Z,101265.47
2022-10-18T12:53:20.461Z,101265.47
2022-10-18T12:54:29.251Z,101264.66
2022-10-18T12:57:20.433Z,101276.03